Archival Weather

Chicago O'Hare International

Chicago, Illinois (KORD)

Report from: Wednesday, March 27, 2024 8:11 AM CDT
Current time: Tuesday, May 21, 2024 11:18 AM CDT

Current weather – Weather history – Daily summaries
Weather forecast

Temperature-1.1°C (30.0°F)
Wind chill-7.6°C (18.3°F)
Dew point-7.2°C (19.0°F)
Winds 15 kts (7.7 m/s, 17.3 mph) West-Northwest (290°)
Wind gusts 23 kts (11.8 m/s, 26.5 mph)
Peak wind 26 kts (13.4 m/s, 29.9 mph) West (260°) at 12:57
Visibility10 mi. (16.1 km)
Clouds Ceiling: Overcast 2,600 ft. (792 m)
Altimeter29.98 in.Hg (1015 mB)
Relative humidity63 %
Density altitude-1,982 ft. (-604 m)
Remarks System requires maintenance
Automated weather observing station with precipitation discriminator
Flight conditions Marginal Visual Meteorological Conditions
Raw dataKORD 271311Z 29015G23KT 10SM OVC026 M01/M07 A2998 RMK AO2 PK WND 26026/1257 T10111072 $
An error has occurred. This application may no longer respond until reloaded. Reload 🗙